Terminal Aerodrome Forecast
Issued by NWS

Home | Current Version | Previous Version | Graphics & Text | Print | Product List | Glossary On
Versions: 1 2 3 4 5 6 7 8 9 10 11 12 13 14 15 16 17 18 19 20
477
FTUS43 KFGF 031720
TAFBJI
TAF
KBJI 031720Z 0318/0418 33008KT P6SM SCT200
     FM040000 27004KT P6SM BKN080
     FM040500 24005KT 4SM -SN OVC020
     FM041200 29005KT 5SM -SN BR OVC012=

USA.gov is the U.S. government's official web portal to all federal, state and local government web resources and services.